sensor_id;sensor_type;location;lat;lon;timestamp;temperature;humidity
3994;DHT22;2011;48.238;13.948;2022-09-09T00:00:32;14.90;99.90
3994;DHT22;2011;48.238;13.948;2022-09-09T00:03:04;14.90;99.90
3994;DHT22;2011;48.238;13.948;2022-09-09T00:05:42;14.90;99.90
3994;DHT22;2011;48.238;13.948;2022-09-09T00:08:17;14.90;99.90
3994;DHT22;2011;48.238;13.948;2022-09-09T00:10:48;14.80;99.90
3994;DHT22;2011;48.238;13.948;2022-09-09T00:13:22;14.80;99.90
3994;DHT22;2011;48.238;13.948;2022-09-09T00:15:57;14.80;99.90
3994;DHT22;2011;48.238;13.948;2022-09-09T00:18:28;14.80;99.90
3994;DHT22;2011;48.238;13.948;2022-09-09T00:21:00;14.80;99.90
3994;DHT22;2011;48.238;13.948;2022-09-09T00:23:32;14.80;99.90
3994;DHT22;2011;48.238;13.948;2022-09-09T00:26:04;14.70;99.90
3994;DHT22;2011;48.238;13.948;2022-09-09T00:28:39;14.80;99.90
3994;DHT22;2011;48.238;13.948;2022-09-09T00:31:13;14.80;99.90
3994;DHT22;2011;48.238;13.948;2022-09-09T00:33:40;14.80;99.90
3994;DHT22;2011;48.238;13.948;2022-09-09T00:36:12;14.80;99.90
3994;DHT22;2011;48.238;13.948;2022-09-09T00:38:44;14.80;99.90
3994;DHT22;2011;48.238;13.948;2022-09-09T00:41:17;14.80;99.90
3994;DHT22;2011;48.238;13.948;2022-09-09T00:43:55;14.80;99.90
3994;DHT22;2011;48.238;13.948;2022-09-09T00:46:50;14.90;99.90
3994;DHT22;2011;48.238;13.948;2022-09-09T00:49:28;14.90;99.90
3994;DHT22;2011;48.238;13.948;2022-09-09T00:52:12;14.90;99.90
3994;DHT22;2011;48.238;13.948;2022-09-09T00:54:49;14.90;99.90
3994;DHT22;2011;48.238;13.948;2022-09-09T00:57:26;14.90;99.90
3994;DHT22;2011;48.238;13.948;2022-09-09T01:00:01;14.90;99.90
3994;DHT22;2011;48.238;13.948;2022-09-09T01:02:37;14.90;99.90
3994;DHT22;2011;48.238;13.948;2022-09-09T01:05:12;14.90;99.90
3994;DHT22;2011;48.238;13.948;2022-09-09T01:07:41;14.90;99.90
3994;DHT22;2011;48.238;13.948;2022-09-09T01:10:23;14.90;99.90
3994;DHT22;2011;48.238;13.948;2022-09-09T01:12:54;14.90;99.90
3994;DHT22;2011;48.238;13.948;2022-09-09T01:15:26;14.90;99.90
3994;DHT22;2011;48.238;13.948;2022-09-09T01:17:59;14.90;99.90
3994;DHT22;2011;48.238;13.948;2022-09-09T01:20:31;14.80;99.90
3994;DHT22;2011;48.238;13.948;2022-09-09T01:23:20;14.80;99.90
3994;DHT22;2011;48.238;13.948;2022-09-09T01:28:57;14.80;99.90
3994;DHT22;2011;48.238;13.948;2022-09-09T01:31:29;14.80;99.90
3994;DHT22;2011;48.238;13.948;2022-09-09T01:33:57;14.80;99.90
3994;DHT22;2011;48.238;13.948;2022-09-09T01:36:29;14.80;99.90
3994;DHT22;2011;48.238;13.948;2022-09-09T01:38:59;14.70;99.90
3994;DHT22;2011;48.238;13.948;2022-09-09T01:41:26;14.70;99.90
3994;DHT22;2011;48.238;13.948;2022-09-09T01:43:54;14.60;99.90
3994;DHT22;2011;48.238;13.948;2022-09-09T01:46:23;14.60;99.90
3994;DHT22;2011;48.238;13.948;2022-09-09T01:48:51;14.60;99.90
3994;DHT22;2011;48.238;13.948;2022-09-09T01:51:19;14.60;99.90
3994;DHT22;2011;48.238;13.948;2022-09-09T01:53:46;14.70;99.90
3994;DHT22;2011;48.238;13.948;2022-09-09T01:56:21;14.70;99.90
3994;DHT22;2011;48.238;13.948;2022-09-09T01:59:08;14.70;99.90
3994;DHT22;2011;48.238;13.948;2022-09-09T02:01:53;14.70;99.90
3994;DHT22;2011;48.238;13.948;2022-09-09T02:04:36;14.70;99.90
3994;DHT22;2011;48.238;13.948;2022-09-09T02:07:15;14.80;99.90
3994;DHT22;2011;48.238;13.948;2022-09-09T02:09:52;14.80;99.90
3994;DHT22;2011;48.238;13.948;2022-09-09T02:12:24;14.80;99.90
3994;DHT22;2011;48.238;13.948;2022-09-09T02:14:56;14.80;99.90
3994;DHT22;2011;48.238;13.948;2022-09-09T02:17:28;14.80;99.90
3994;DHT22;2011;48.238;13.948;2022-09-09T02:19:59;14.80;99.90
3994;DHT22;2011;48.238;13.948;2022-09-09T02:22:30;14.70;99.90
3994;DHT22;2011;48.238;13.948;2022-09-09T02:25:00;14.70;99.90
3994;DHT22;2011;48.238;13.948;2022-09-09T02:27:27;14.70;99.90
3994;DHT22;2011;48.238;13.948;2022-09-09T02:29:56;14.70;99.90
3994;DHT22;2011;48.238;13.948;2022-09-09T02:32:27;14.80;99.90
3994;DHT22;2011;48.238;13.948;2022-09-09T02:35:00;14.80;99.90
3994;DHT22;2011;48.238;13.948;2022-09-09T02:37:34;14.80;99.90
3994;DHT22;2011;48.238;13.948;2022-09-09T02:40:03;14.70;99.90
3994;DHT22;2011;48.238;13.948;2022-09-09T02:42:30;14.70;99.90
3994;DHT22;2011;48.238;13.948;2022-09-09T02:44:57;14.70;99.90
3994;DHT22;2011;48.238;13.948;2022-09-09T02:47:34;14.70;99.90
3994;DHT22;2011;48.238;13.948;2022-09-09T02:50:08;14.70;99.90
3994;DHT22;2011;48.238;13.948;2022-09-09T02:52:45;14.70;99.90
3994;DHT22;2011;48.238;13.948;2022-09-09T02:55:18;14.70;99.90
3994;DHT22;2011;48.238;13.948;2022-09-09T02:57:49;14.70;99.90
3994;DHT22;2011;48.238;13.948;2022-09-09T03:00:22;14.60;99.90
3994;DHT22;2011;48.238;13.948;2022-09-09T03:02:51;14.60;99.90
3994;DHT22;2011;48.238;13.948;2022-09-09T03:05:18;14.50;99.90
3994;DHT22;2011;48.238;13.948;2022-09-09T03:07:46;14.40;99.90
3994;DHT22;2011;48.238;13.948;2022-09-09T03:10:13;14.40;99.90
3994;DHT22;2011;48.238;13.948;2022-09-09T03:12:41;14.30;99.90
3994;DHT22;2011;48.238;13.948;2022-09-09T03:15:09;14.40;99.90
3994;DHT22;2011;48.238;13.948;2022-09-09T03:17:36;14.40;99.90
3994;DHT22;2011;48.238;13.948;2022-09-09T03:20:05;14.40;99.90
3994;DHT22;2011;48.238;13.948;2022-09-09T03:22:32;14.50;99.90
3994;DHT22;2011;48.238;13.948;2022-09-09T03:24:59;14.50;99.90
3994;DHT22;2011;48.238;13.948;2022-09-09T03:27:27;14.50;99.90
3994;DHT22;2011;48.238;13.948;2022-09-09T03:29:54;14.50;99.90
3994;DHT22;2011;48.238;13.948;2022-09-09T03:32:21;14.60;99.90
3994;DHT22;2011;48.238;13.948;2022-09-09T03:34:51;14.60;99.90
3994;DHT22;2011;48.238;13.948;2022-09-09T03:37:20;14.60;99.90
3994;DHT22;2011;48.238;13.948;2022-09-09T03:39:48;14.60;99.90
3994;DHT22;2011;48.238;13.948;2022-09-09T03:42:15;14.60;99.90
3994;DHT22;2011;48.238;13.948;2022-09-09T03:44:44;14.60;99.90
3994;DHT22;2011;48.238;13.948;2022-09-09T03:47:16;14.60;99.90
3994;DHT22;2011;48.238;13.948;2022-09-09T03:49:43;14.60;99.90
3994;DHT22;2011;48.238;13.948;2022-09-09T03:52:10;14.70;99.90
3994;DHT22;2011;48.238;13.948;2022-09-09T03:54:38;14.70;99.90
3994;DHT22;2011;48.238;13.948;2022-09-09T03:57:08;14.70;99.90
3994;DHT22;2011;48.238;13.948;2022-09-09T03:59:35;14.70;99.90
3994;DHT22;2011;48.238;13.948;2022-09-09T04:02:02;14.60;99.90
3994;DHT22;2011;48.238;13.948;2022-09-09T04:04:29;14.60;99.90
3994;DHT22;2011;48.238;13.948;2022-09-09T04:06:56;14.50;99.90
3994;DHT22;2011;48.238;13.948;2022-09-09T04:09:23;14.50;99.90
3994;DHT22;2011;48.238;13.948;2022-09-09T04:11:51;14.50;99.90
3994;DHT22;2011;48.238;13.948;2022-09-09T04:14:19;14.50;99.90
3994;DHT22;2011;48.238;13.948;2022-09-09T04:16:46;14.50;99.90
3994;DHT22;2011;48.238;13.948;2022-09-09T04:19:13;14.60;99.90
3994;DHT22;2011;48.238;13.948;2022-09-09T04:21:40;14.60;99.90
3994;DHT22;2011;48.238;13.948;2022-09-09T04:24:08;14.60;99.90
3994;DHT22;2011;48.238;13.948;2022-09-09T04:26:35;14.60;99.90
3994;DHT22;2011;48.238;13.948;2022-09-09T04:29:04;14.70;99.90
3994;DHT22;2011;48.238;13.948;2022-09-09T04:31:33;14.70;99.90
3994;DHT22;2011;48.238;13.948;2022-09-09T04:34:00;14.70;99.90
3994;DHT22;2011;48.238;13.948;2022-09-09T04:36:31;14.60;99.90
3994;DHT22;2011;48.238;13.948;2022-09-09T04:38:58;14.60;99.90
3994;DHT22;2011;48.238;13.948;2022-09-09T04:41:25;14.60;99.90
3994;DHT22;2011;48.238;13.948;2022-09-09T04:43:53;14.60;99.90
3994;DHT22;2011;48.238;13.948;2022-09-09T04:46:21;14.60;99.90
3994;DHT22;2011;48.238;13.948;2022-09-09T04:48:49;14.60;99.90
3994;DHT22;2011;48.238;13.948;2022-09-09T04:51:17;14.50;99.90
3994;DHT22;2011;48.238;13.948;2022-09-09T04:53:44;14.50;99.90
3994;DHT22;2011;48.238;13.948;2022-09-09T04:56:13;14.50;99.90
3994;DHT22;2011;48.238;13.948;2022-09-09T04:58:40;14.60;99.90
3994;DHT22;2011;48.238;13.948;2022-09-09T05:01:10;14.50;99.90
3994;DHT22;2011;48.238;13.948;2022-09-09T05:03:39;14.50;99.90
3994;DHT22;2011;48.238;13.948;2022-09-09T05:06:07;14.50;99.90
3994;DHT22;2011;48.238;13.948;2022-09-09T05:08:35;14.50;99.90
3994;DHT22;2011;48.238;13.948;2022-09-09T05:11:03;14.60;99.90
3994;DHT22;2011;48.238;13.948;2022-09-09T05:13:30;14.60;99.90
3994;DHT22;2011;48.238;13.948;2022-09-09T05:15:58;14.60;99.90
3994;DHT22;2011;48.238;13.948;2022-09-09T05:18:25;14.60;99.90
3994;DHT22;2011;48.238;13.948;2022-09-09T05:20:58;14.60;99.90
3994;DHT22;2011;48.238;13.948;2022-09-09T05:23:26;14.70;99.90
3994;DHT22;2011;48.238;13.948;2022-09-09T05:25:57;14.70;99.90
3994;DHT22;2011;48.238;13.948;2022-09-09T05:28:24;14.70;99.90
3994;DHT22;2011;48.238;13.948;2022-09-09T05:30:56;14.70;99.90
3994;DHT22;2011;48.238;13.948;2022-09-09T05:33:24;14.80;99.90
3994;DHT22;2011;48.238;13.948;2022-09-09T05:35:57;14.80;99.90
3994;DHT22;2011;48.238;13.948;2022-09-09T05:38:24;14.90;99.90
3994;DHT22;2011;48.238;13.948;2022-09-09T05:40:51;14.90;99.90
3994;DHT22;2011;48.238;13.948;2022-09-09T05:43:19;14.90;99.90
3994;DHT22;2011;48.238;13.948;2022-09-09T05:45:46;15.00;99.90
3994;DHT22;2011;48.238;13.948;2022-09-09T05:48:14;15.00;99.90
3994;DHT22;2011;48.238;13.948;2022-09-09T05:50:41;15.10;99.90
3994;DHT22;2011;48.238;13.948;2022-09-09T05:53:12;15.10;99.90
3994;DHT22;2011;48.238;13.948;2022-09-09T05:55:38;15.20;99.90
3994;DHT22;2011;48.238;13.948;2022-09-09T05:58:06;15.20;99.90
3994;DHT22;2011;48.238;13.948;2022-09-09T06:00:33;15.30;99.90
3994;DHT22;2011;48.238;13.948;2022-09-09T06:02:59;15.20;99.90
3994;DHT22;2011;48.238;13.948;2022-09-09T06:05:26;15.30;99.90
3994;DHT22;2011;48.238;13.948;2022-09-09T06:07:54;15.30;99.90
3994;DHT22;2011;48.238;13.948;2022-09-09T06:10:22;15.30;99.90
3994;DHT22;2011;48.238;13.948;2022-09-09T06:12:52;15.40;99.90
3994;DHT22;2011;48.238;13.948;2022-09-09T06:15:20;15.40;99.90
3994;DHT22;2011;48.238;13.948;2022-09-09T06:17:47;15.40;99.90
3994;DHT22;2011;48.238;13.948;2022-09-09T06:20:20;15.40;99.90
3994;DHT22;2011;48.238;13.948;2022-09-09T06:22:47;15.40;99.90
3994;DHT22;2011;48.238;13.948;2022-09-09T06:25:14;15.40;99.90
3994;DHT22;2011;48.238;13.948;2022-09-09T06:27:43;15.40;99.90
3994;DHT22;2011;48.238;13.948;2022-09-09T06:30:10;15.50;99.90
3994;DHT22;2011;48.238;13.948;2022-09-09T06:32:37;15.50;99.90
3994;DHT22;2011;48.238;13.948;2022-09-09T06:35:05;15.50;99.90
3994;DHT22;2011;48.238;13.948;2022-09-09T06:37:33;15.50;99.90
3994;DHT22;2011;48.238;13.948;2022-09-09T06:40:00;15.50;99.90
3994;DHT22;2011;48.238;13.948;2022-09-09T06:42:27;15.40;99.90
3994;DHT22;2011;48.238;13.948;2022-09-09T06:44:55;15.50;99.90
3994;DHT22;2011;48.238;13.948;2022-09-09T06:47:22;15.50;99.90
3994;DHT22;2011;48.238;13.948;2022-09-09T06:49:50;15.50;99.90
3994;DHT22;2011;48.238;13.948;2022-09-09T06:52:17;15.60;99.90
3994;DHT22;2011;48.238;13.948;2022-09-09T06:54:44;15.50;99.90
3994;DHT22;2011;48.238;13.948;2022-09-09T06:57:11;15.50;99.90
3994;DHT22;2011;48.238;13.948;2022-09-09T06:59:38;15.50;99.90
3994;DHT22;2011;48.238;13.948;2022-09-09T07:02:07;15.60;99.90
3994;DHT22;2011;48.238;13.948;2022-09-09T07:04:34;15.60;99.90
3994;DHT22;2011;48.238;13.948;2022-09-09T07:07:02;15.70;99.90
3994;DHT22;2011;48.238;13.948;2022-09-09T07:09:29;15.70;99.90
3994;DHT22;2011;48.238;13.948;2022-09-09T07:11:56;15.70;99.90
3994;DHT22;2011;48.238;13.948;2022-09-09T07:14:25;15.70;99.90
3994;DHT22;2011;48.238;13.948;2022-09-09T07:16:52;15.80;99.90
3994;DHT22;2011;48.238;13.948;2022-09-09T07:19:20;15.80;99.90
3994;DHT22;2011;48.238;13.948;2022-09-09T07:21:47;15.90;99.90
3994;DHT22;2011;48.238;13.948;2022-09-09T07:24:14;15.90;99.90
3994;DHT22;2011;48.238;13.948;2022-09-09T07:26:42;16.00;99.90
3994;DHT22;2011;48.238;13.948;2022-09-09T07:29:09;16.00;99.90
3994;DHT22;2011;48.238;13.948;2022-09-09T07:31:39;16.10;99.90
3994;DHT22;2011;48.238;13.948;2022-09-09T07:34:07;16.10;99.90
3994;DHT22;2011;48.238;13.948;2022-09-09T07:36:36;16.00;99.90
3994;DHT22;2011;48.238;13.948;2022-09-09T07:39:05;15.90;99.90
3994;DHT22;2011;48.238;13.948;2022-09-09T07:41:34;15.90;99.90
3994;DHT22;2011;48.238;13.948;2022-09-09T07:44:05;15.80;99.90
3994;DHT22;2011;48.238;13.948;2022-09-09T07:46:33;15.80;99.90
3994;DHT22;2011;48.238;13.948;2022-09-09T07:49:01;15.80;99.90
3994;DHT22;2011;48.238;13.948;2022-09-09T07:51:30;15.80;99.90
3994;DHT22;2011;48.238;13.948;2022-09-09T07:54:01;15.80;99.90
3994;DHT22;2011;48.238;13.948;2022-09-09T07:56:29;15.90;99.90
3994;DHT22;2011;48.238;13.948;2022-09-09T07:58:57;15.90;99.90
3994;DHT22;2011;48.238;13.948;2022-09-09T08:01:27;16.00;99.90
3994;DHT22;2011;48.238;13.948;2022-09-09T08:03:56;16.10;99.90
3994;DHT22;2011;48.238;13.948;2022-09-09T08:06:25;16.20;99.90
3994;DHT22;2011;48.238;13.948;2022-09-09T08:08:52;16.20;99.90
3994;DHT22;2011;48.238;13.948;2022-09-09T08:11:23;16.20;99.90
3994;DHT22;2011;48.238;13.948;2022-09-09T08:13:51;16.30;99.90
3994;DHT22;2011;48.238;13.948;2022-09-09T08:16:20;16.30;99.90
3994;DHT22;2011;48.238;13.948;2022-09-09T08:18:48;16.40;99.90
3994;DHT22;2011;48.238;13.948;2022-09-09T08:21:16;16.40;99.90
3994;DHT22;2011;48.238;13.948;2022-09-09T08:23:45;16.40;99.90
3994;DHT22;2011;48.238;13.948;2022-09-09T08:26:14;16.40;99.90
3994;DHT22;2011;48.238;13.948;2022-09-09T08:28:43;16.50;99.90
3994;DHT22;2011;48.238;13.948;2022-09-09T08:31:12;16.50;99.90
3994;DHT22;2011;48.238;13.948;2022-09-09T08:33:39;16.50;99.90
3994;DHT22;2011;48.238;13.948;2022-09-09T08:36:10;16.50;99.90
3994;DHT22;2011;48.238;13.948;2022-09-09T08:38:38;16.60;99.90
3994;DHT22;2011;48.238;13.948;2022-09-09T08:41:25;16.60;99.90
3994;DHT22;2011;48.238;13.948;2022-09-09T08:44:03;16.60;99.90
3994;DHT22;2011;48.238;13.948;2022-09-09T08:46:40;16.60;99.90
3994;DHT22;2011;48.238;13.948;2022-09-09T08:49:19;16.70;99.90
3994;DHT22;2011;48.238;13.948;2022-09-09T08:51:53;16.70;99.90
3994;DHT22;2011;48.238;13.948;2022-09-09T08:54:22;16.70;99.90
3994;DHT22;2011;48.238;13.948;2022-09-09T08:56:50;16.70;99.90
3994;DHT22;2011;48.238;13.948;2022-09-09T08:59:19;16.70;99.90
3994;DHT22;2011;48.238;13.948;2022-09-09T09:01:54;16.70;99.90
3994;DHT22;2011;48.238;13.948;2022-09-09T09:04:33;16.80;99.90
3994;DHT22;2011;48.238;13.948;2022-09-09T09:07:09;16.80;99.90
3994;DHT22;2011;48.238;13.948;2022-09-09T09:09:46;16.80;99.90
3994;DHT22;2011;48.238;13.948;2022-09-09T09:12:18;16.80;99.90
3994;DHT22;2011;48.238;13.948;2022-09-09T09:14:48;16.80;99.90
3994;DHT22;2011;48.238;13.948;2022-09-09T09:17:18;16.70;99.90
3994;DHT22;2011;48.238;13.948;2022-09-09T09:19:47;16.60;99.90
3994;DHT22;2011;48.238;13.948;2022-09-09T09:22:18;16.60;99.90
3994;DHT22;2011;48.238;13.948;2022-09-09T09:24:52;16.50;99.90
3994;DHT22;2011;48.238;13.948;2022-09-09T09:27:30;16.50;99.90
3994;DHT22;2011;48.238;13.948;2022-09-09T09:30:00;16.50;99.90
3994;DHT22;2011;48.238;13.948;2022-09-09T09:32:33;16.50;99.90
3994;DHT22;2011;48.238;13.948;2022-09-09T09:35:02;16.50;99.90
3994;DHT22;2011;48.238;13.948;2022-09-09T09:37:35;16.60;99.90
3994;DHT22;2011;48.238;13.948;2022-09-09T09:40:09;16.60;99.90
3994;DHT22;2011;48.238;13.948;2022-09-09T09:42:36;16.60;99.90
3994;DHT22;2011;48.238;13.948;2022-09-09T09:45:20;16.50;99.90
3994;DHT22;2011;48.238;13.948;2022-09-09T09:48:01;16.50;99.90
3994;DHT22;2011;48.238;13.948;2022-09-09T09:50:29;16.60;99.90
3994;DHT22;2011;48.238;13.948;2022-09-09T09:52:59;16.70;99.90
3994;DHT22;2011;48.238;13.948;2022-09-09T09:55:28;16.70;99.90
3994;DHT22;2011;48.238;13.948;2022-09-09T09:58:06;16.70;99.90
3994;DHT22;2011;48.238;13.948;2022-09-09T10:00:35;16.80;99.90
3994;DHT22;2011;48.238;13.948;2022-09-09T10:03:02;16.90;99.90
3994;DHT22;2011;48.238;13.948;2022-09-09T10:05:45;16.90;99.90
3994;DHT22;2011;48.238;13.948;2022-09-09T10:08:14;16.90;99.90
3994;DHT22;2011;48.238;13.948;2022-09-09T10:11:10;16.90;99.90
3994;DHT22;2011;48.238;13.948;2022-09-09T10:13:47;17.00;99.90
3994;DHT22;2011;48.238;13.948;2022-09-09T10:16:25;17.10;99.90
3994;DHT22;2011;48.238;13.948;2022-09-09T10:18:59;17.20;99.90
3994;DHT22;2011;48.238;13.948;2022-09-09T10:21:51;17.30;99.90
3994;DHT22;2011;48.238;13.948;2022-09-09T10:24:36;17.30;99.90
3994;DHT22;2011;48.238;13.948;2022-09-09T10:27:11;17.40;99.90
3994;DHT22;2011;48.238;13.948;2022-09-09T10:29:59;17.50;99.90
3994;DHT22;2011;48.238;13.948;2022-09-09T10:32:38;17.60;99.90
3994;DHT22;2011;48.238;13.948;2022-09-09T10:35:13;17.60;99.90
3994;DHT22;2011;48.238;13.948;2022-09-09T10:38:10;17.70;99.90
3994;DHT22;2011;48.238;13.948;2022-09-09T10:40:43;17.70;99.90
3994;DHT22;2011;48.238;13.948;2022-09-09T10:43:24;17.70;99.90
3994;DHT22;2011;48.238;13.948;2022-09-09T10:46:03;17.70;99.90
3994;DHT22;2011;48.238;13.948;2022-09-09T10:48:40;17.70;99.90
3994;DHT22;2011;48.238;13.948;2022-09-09T10:51:23;17.70;99.90
3994;DHT22;2011;48.238;13.948;2022-09-09T10:54:03;17.60;99.90
3994;DHT22;2011;48.238;13.948;2022-09-09T10:56:33;17.50;99.90
3994;DHT22;2011;48.238;13.948;2022-09-09T10:59:04;17.50;99.90
3994;DHT22;2011;48.238;13.948;2022-09-09T11:01:37;17.40;99.90
3994;DHT22;2011;48.238;13.948;2022-09-09T11:04:13;17.30;99.90
3994;DHT22;2011;48.238;13.948;2022-09-09T11:06:47;17.30;99.90
3994;DHT22;2011;48.238;13.948;2022-09-09T11:09:21;17.40;99.90
3994;DHT22;2011;48.238;13.948;2022-09-09T11:11:52;17.40;99.90
3994;DHT22;2011;48.238;13.948;2022-09-09T11:14:22;17.50;99.90
3994;DHT22;2011;48.238;13.948;2022-09-09T11:16:55;17.60;99.90
3994;DHT22;2011;48.238;13.948;2022-09-09T11:19:28;17.60;99.90
3994;DHT22;2011;48.238;13.948;2022-09-09T11:22:00;17.60;99.90
3994;DHT22;2011;48.238;13.948;2022-09-09T11:24:30;17.60;99.90
3994;DHT22;2011;48.238;13.948;2022-09-09T11:27:02;17.60;99.90
3994;DHT22;2011;48.238;13.948;2022-09-09T11:29:59;17.60;99.90
3994;DHT22;2011;48.238;13.948;2022-09-09T11:32:48;17.60;99.90
3994;DHT22;2011;48.238;13.948;2022-09-09T11:35:31;17.70;99.90
3994;DHT22;2011;48.238;13.948;2022-09-09T11:38:21;17.70;99.90
3994;DHT22;2011;48.238;13.948;2022-09-09T11:40:56;17.70;99.90
3994;DHT22;2011;48.238;13.948;2022-09-09T11:43:28;17.60;99.90
3994;DHT22;2011;48.238;13.948;2022-09-09T11:45:58;17.60;99.90
3994;DHT22;2011;48.238;13.948;2022-09-09T11:48:32;17.50;99.90
3994;DHT22;2011;48.238;13.948;2022-09-09T11:51:04;17.50;99.90
3994;DHT22;2011;48.238;13.948;2022-09-09T11:53:33;17.50;99.90
3994;DHT22;2011;48.238;13.948;2022-09-09T11:56:03;17.50;99.90
3994;DHT22;2011;48.238;13.948;2022-09-09T11:58:36;17.50;99.90
3994;DHT22;2011;48.238;13.948;2022-09-09T12:04:17;17.50;99.90
3994;DHT22;2011;48.238;13.948;2022-09-09T12:06:50;17.50;99.90
3994;DHT22;2011;48.238;13.948;2022-09-09T12:09:22;17.50;99.90
3994;DHT22;2011;48.238;13.948;2022-09-09T12:11:50;17.50;99.90
3994;DHT22;2011;48.238;13.948;2022-09-09T12:14:21;17.50;99.90
3994;DHT22;2011;48.238;13.948;2022-09-09T12:16:48;17.50;99.90
3994;DHT22;2011;48.238;13.948;2022-09-09T12:19:19;17.50;99.90
3994;DHT22;2011;48.238;13.948;2022-09-09T12:21:54;17.50;99.90
3994;DHT22;2011;48.238;13.948;2022-09-09T12:24:30;17.50;99.90
3994;DHT22;2011;48.238;13.948;2022-09-09T12:27:05;17.60;99.90
3994;DHT22;2011;48.238;13.948;2022-09-09T12:29:42;17.60;99.90
3994;DHT22;2011;48.238;13.948;2022-09-09T12:32:13;17.60;99.90
3994;DHT22;2011;48.238;13.948;2022-09-09T12:34:46;17.60;99.90
3994;DHT22;2011;48.238;13.948;2022-09-09T12:37:21;17.60;99.90
3994;DHT22;2011;48.238;13.948;2022-09-09T12:39:54;17.70;99.90
3994;DHT22;2011;48.238;13.948;2022-09-09T12:42:22;17.70;99.90
3994;DHT22;2011;48.238;13.948;2022-09-09T12:44:54;17.70;99.90
3994;DHT22;2011;48.238;13.948;2022-09-09T12:47:24;17.80;99.90
3994;DHT22;2011;48.238;13.948;2022-09-09T12:49:53;17.80;99.90
3994;DHT22;2011;48.238;13.948;2022-09-09T12:52:27;17.80;99.90
3994;DHT22;2011;48.238;13.948;2022-09-09T12:54:57;17.80;99.90
3994;DHT22;2011;48.238;13.948;2022-09-09T12:57:26;17.80;99.90
3994;DHT22;2011;48.238;13.948;2022-09-09T13:00:10;17.80;99.90
3994;DHT22;2011;48.238;13.948;2022-09-09T13:02:47;17.80;99.90
3994;DHT22;2011;48.238;13.948;2022-09-09T13:05:19;17.80;99.90
3994;DHT22;2011;48.238;13.948;2022-09-09T13:07:48;17.80;99.90
3994;DHT22;2011;48.238;13.948;2022-09-09T13:10:23;17.80;99.90
3994;DHT22;2011;48.238;13.948;2022-09-09T13:12:52;17.80;99.90
3994;DHT22;2011;48.238;13.948;2022-09-09T13:15:22;17.80;99.90
3994;DHT22;2011;48.238;13.948;2022-09-09T13:17:52;17.80;99.90
3994;DHT22;2011;48.238;13.948;2022-09-09T13:20:21;17.80;99.90
3994;DHT22;2011;48.238;13.948;2022-09-09T13:22:51;17.80;99.90
3994;DHT22;2011;48.238;13.948;2022-09-09T13:25:22;17.80;99.90
3994;DHT22;2011;48.238;13.948;2022-09-09T13:27:55;17.80;99.90
3994;DHT22;2011;48.238;13.948;2022-09-09T13:30:25;17.80;99.90
3994;DHT22;2011;48.238;13.948;2022-09-09T13:33:18;17.80;99.90
3994;DHT22;2011;48.238;13.948;2022-09-09T13:35:49;17.80;99.90
3994;DHT22;2011;48.238;13.948;2022-09-09T13:38:18;17.80;99.90
3994;DHT22;2011;48.238;13.948;2022-09-09T13:40:59;17.90;99.90
3994;DHT22;2011;48.238;13.948;2022-09-09T13:43:29;17.90;99.90
3994;DHT22;2011;48.238;13.948;2022-09-09T13:45:58;17.90;99.90
3994;DHT22;2011;48.238;13.948;2022-09-09T13:48:25;17.90;99.90
3994;DHT22;2011;48.238;13.948;2022-09-09T13:51:01;17.90;99.90
3994;DHT22;2011;48.238;13.948;2022-09-09T13:53:32;17.90;99.90
3994;DHT22;2011;48.238;13.948;2022-09-09T13:55:59;17.90;99.90
3994;DHT22;2011;48.238;13.948;2022-09-09T13:58:26;17.90;99.90
3994;DHT22;2011;48.238;13.948;2022-09-09T14:00:54;17.90;99.90
3994;DHT22;2011;48.238;13.948;2022-09-09T14:03:21;17.90;99.90
3994;DHT22;2011;48.238;13.948;2022-09-09T14:05:48;17.90;99.90
3994;DHT22;2011;48.238;13.948;2022-09-09T14:08:21;17.90;99.90
3994;DHT22;2011;48.238;13.948;2022-09-09T14:10:50;17.90;99.90
3994;DHT22;2011;48.238;13.948;2022-09-09T14:13:17;17.90;99.90
3994;DHT22;2011;48.238;13.948;2022-09-09T14:15:48;17.90;99.90
3994;DHT22;2011;48.238;13.948;2022-09-09T14:18:15;17.90;99.90
3994;DHT22;2011;48.238;13.948;2022-09-09T14:20:42;17.90;99.90
3994;DHT22;2011;48.238;13.948;2022-09-09T14:23:11;17.90;99.90
3994;DHT22;2011;48.238;13.948;2022-09-09T14:25:40;17.90;99.90
3994;DHT22;2011;48.238;13.948;2022-09-09T14:28:11;17.90;99.90
3994;DHT22;2011;48.238;13.948;2022-09-09T14:30:39;17.90;99.90
3994;DHT22;2011;48.238;13.948;2022-09-09T14:33:08;17.90;99.90
3994;DHT22;2011;48.238;13.948;2022-09-09T14:35:36;17.90;99.90
3994;DHT22;2011;48.238;13.948;2022-09-09T14:38:04;17.90;99.90
3994;DHT22;2011;48.238;13.948;2022-09-09T14:40:31;17.90;99.90
3994;DHT22;2011;48.238;13.948;2022-09-09T14:43:00;17.90;99.90
3994;DHT22;2011;48.238;13.948;2022-09-09T14:45:29;17.90;99.90
3994;DHT22;2011;48.238;13.948;2022-09-09T14:47:56;17.90;99.90
3994;DHT22;2011;48.238;13.948;2022-09-09T14:50:23;17.90;99.90
3994;DHT22;2011;48.238;13.948;2022-09-09T14:52:50;17.90;99.90
3994;DHT22;2011;48.238;13.948;2022-09-09T14:55:17;17.90;99.90
3994;DHT22;2011;48.238;13.948;2022-09-09T14:57:45;17.90;99.90
3994;DHT22;2011;48.238;13.948;2022-09-09T15:00:12;17.90;99.90
3994;DHT22;2011;48.238;13.948;2022-09-09T15:02:41;17.90;99.90
3994;DHT22;2011;48.238;13.948;2022-09-09T15:05:08;17.90;99.90
3994;DHT22;2011;48.238;13.948;2022-09-09T15:07:36;17.90;99.90
3994;DHT22;2011;48.238;13.948;2022-09-09T15:10:04;17.90;99.90
3994;DHT22;2011;48.238;13.948;2022-09-09T15:12:32;17.90;99.90
3994;DHT22;2011;48.238;13.948;2022-09-09T15:15:01;17.90;99.90
3994;DHT22;2011;48.238;13.948;2022-09-09T15:17:29;17.80;99.90
3994;DHT22;2011;48.238;13.948;2022-09-09T15:19:57;17.80;99.90
3994;DHT22;2011;48.238;13.948;2022-09-09T15:22:24;17.80;99.90
3994;DHT22;2011;48.238;13.948;2022-09-09T15:24:51;17.80;99.90
3994;DHT22;2011;48.238;13.948;2022-09-09T15:27:18;17.80;99.90
3994;DHT22;2011;48.238;13.948;2022-09-09T15:29:45;17.80;99.90
3994;DHT22;2011;48.238;13.948;2022-09-09T15:32:12;17.80;99.90
3994;DHT22;2011;48.238;13.948;2022-09-09T15:34:39;17.80;99.90
3994;DHT22;2011;48.238;13.948;2022-09-09T15:37:09;17.80;99.90
3994;DHT22;2011;48.238;13.948;2022-09-09T15:39:38;17.80;99.90
3994;DHT22;2011;48.238;13.948;2022-09-09T15:42:06;17.80;99.90
3994;DHT22;2011;48.238;13.948;2022-09-09T15:44:39;17.80;99.90
3994;DHT22;2011;48.238;13.948;2022-09-09T15:47:06;17.80;99.90
3994;DHT22;2011;48.238;13.948;2022-09-09T15:49:33;17.80;99.90
3994;DHT22;2011;48.238;13.948;2022-09-09T15:52:00;17.80;99.90
3994;DHT22;2011;48.238;13.948;2022-09-09T15:54:32;17.80;99.90
3994;DHT22;2011;48.238;13.948;2022-09-09T15:57:04;17.80;99.90
3994;DHT22;2011;48.238;13.948;2022-09-09T15:59:32;17.80;99.90
3994;DHT22;2011;48.238;13.948;2022-09-09T16:02:00;17.80;99.90
3994;DHT22;2011;48.238;13.948;2022-09-09T16:04:28;17.80;99.90
3994;DHT22;2011;48.238;13.948;2022-09-09T16:06:56;17.80;99.90
3994;DHT22;2011;48.238;13.948;2022-09-09T16:09:25;17.80;99.90
3994;DHT22;2011;48.238;13.948;2022-09-09T16:11:56;17.80;99.90
3994;DHT22;2011;48.238;13.948;2022-09-09T16:14:24;17.80;99.90